sensor_id;sensor_type;location;lat;lon;timestamp;temperature;humidity
71291;DHT22;59073;51.994;4.448;2023-02-26T00:00:10;4.22;68.09
71291;DHT22;59073;51.994;4.448;2023-02-26T00:02:48;4.19;68.57
71291;DHT22;59073;51.994;4.448;2023-02-26T00:05:27;4.16;68.74
71291;DHT22;59073;51.994;4.448;2023-02-26T00:07:55;4.06;69.21
71291;DHT22;59073;51.994;4.448;2023-02-26T00:10:23;4.06;69.23
71291;DHT22;59073;51.994;4.448;2023-02-26T00:13:00;4.03;69.67
71291;DHT22;59073;51.994;4.448;2023-02-26T00:15:35;4.02;69.76
71291;DHT22;59073;51.994;4.448;2023-02-26T00:18:36;4.10;69.81
71291;DHT22;59073;51.994;4.448;2023-02-26T00:21:31;4.09;69.86
71291;DHT22;59073;51.994;4.448;2023-02-26T00:24:38;4.07;69.89
71291;DHT22;59073;51.994;4.448;2023-02-26T00:27:22;4.03;70.15
71291;DHT22;59073;51.994;4.448;2023-02-26T00:30:05;3.92;70.60
71291;DHT22;59073;51.994;4.448;2023-02-26T00:32:51;3.99;70.73
71291;DHT22;59073;51.994;4.448;2023-02-26T00:35:26;3.96;70.57
71291;DHT22;59073;51.994;4.448;2023-02-26T00:37:57;3.96;70.23
71291;DHT22;59073;51.994;4.448;2023-02-26T00:40:46;4.05;70.26
71291;DHT22;59073;51.994;4.448;2023-02-26T00:43:18;3.99;70.39
71291;DHT22;59073;51.994;4.448;2023-02-26T00:48:46;3.92;70.69
71291;DHT22;59073;51.994;4.448;2023-02-26T00:51:25;3.85;70.88
71291;DHT22;59073;51.994;4.448;2023-02-26T00:54:43;3.93;71.07
71291;DHT22;59073;51.994;4.448;2023-02-26T00:56:44;3.79;71.02
71291;DHT22;59073;51.994;4.448;2023-02-26T00:59:10;3.88;71.18
71291;DHT22;59073;51.994;4.448;2023-02-26T01:01:54;3.91;70.76
71291;DHT22;59073;51.994;4.448;2023-02-26T01:04:30;4.02;70.82
71291;DHT22;59073;51.994;4.448;2023-02-26T01:07:09;4.12;70.01
71291;DHT22;59073;51.994;4.448;2023-02-26T01:09:53;4.10;70.05
71291;DHT22;59073;51.994;4.448;2023-02-26T01:12:30;4.17;70.55
71291;DHT22;59073;51.994;4.448;2023-02-26T01:14:58;4.10;70.02
71291;DHT22;59073;51.994;4.448;2023-02-26T01:20:13;4.26;69.16
71291;DHT22;59073;51.994;4.448;2023-02-26T01:23:08;4.17;69.30
71291;DHT22;59073;51.994;4.448;2023-02-26T01:25:49;4.26;68.87
71291;DHT22;59073;51.994;4.448;2023-02-26T01:28:29;4.10;69.41
71291;DHT22;59073;51.994;4.448;2023-02-26T01:34:55;4.06;68.67
71291;DHT22;59073;51.994;4.448;2023-02-26T01:47:39;4.03;68.47
71291;DHT22;59073;51.994;4.448;2023-02-26T01:50:18;3.86;69.30
71291;DHT22;59073;51.994;4.448;2023-02-26T01:55:18;3.82;69.89
71291;DHT22;59073;51.994;4.448;2023-02-26T01:58:06;3.74;69.87
71291;DHT22;59073;51.994;4.448;2023-02-26T02:00:40;3.67;70.14
71291;DHT22;59073;51.994;4.448;2023-02-26T02:03:11;3.64;70.73
71291;DHT22;59073;51.994;4.448;2023-02-26T02:05:50;3.61;70.74
71291;DHT22;59073;51.994;4.448;2023-02-26T02:08:22;3.67;70.73
71291;DHT22;59073;51.994;4.448;2023-02-26T02:11:12;3.61;70.64
71291;DHT22;59073;51.994;4.448;2023-02-26T02:14:02;3.58;70.93
71291;DHT22;59073;51.994;4.448;2023-02-26T02:16:58;3.57;70.19
71291;DHT22;59073;51.994;4.448;2023-02-26T02:25:45;3.60;71.18
71291;DHT22;59073;51.994;4.448;2023-02-26T02:31:05;3.50;70.96
71291;DHT22;59073;51.994;4.448;2023-02-26T02:33:42;3.45;71.07
71291;DHT22;59073;51.994;4.448;2023-02-26T02:36:27;3.50;70.83
71291;DHT22;59073;51.994;4.448;2023-02-26T02:39:06;3.38;70.88
71291;DHT22;59073;51.994;4.448;2023-02-26T02:41:47;3.40;70.94
71291;DHT22;59073;51.994;4.448;2023-02-26T02:47:22;3.31;70.96
71291;DHT22;59073;51.994;4.448;2023-02-26T02:53:03;3.20;71.34
71291;DHT22;59073;51.994;4.448;2023-02-26T02:59:04;2.89;72.03
71291;DHT22;59073;51.994;4.448;2023-02-26T03:01:37;3.09;71.27
71291;DHT22;59073;51.994;4.448;2023-02-26T03:04:28;3.16;70.21
71291;DHT22;59073;51.994;4.448;2023-02-26T03:07:07;3.04;69.75
71291;DHT22;59073;51.994;4.448;2023-02-26T03:09:50;3.03;70.93
71291;DHT22;59073;51.994;4.448;2023-02-26T03:12:30;2.93;70.82
71291;DHT22;59073;51.994;4.448;2023-02-26T03:15:05;2.96;70.59
71291;DHT22;59073;51.994;4.448;2023-02-26T03:23:39;2.86;69.94
71291;DHT22;59073;51.994;4.448;2023-02-26T03:29:57;2.78;69.92
71291;DHT22;59073;51.994;4.448;2023-02-26T03:32:59;2.83;69.61
71291;DHT22;59073;51.994;4.448;2023-02-26T03:35:55;2.81;68.90
71291;DHT22;59073;51.994;4.448;2023-02-26T03:38:30;2.85;68.81
71291;DHT22;59073;51.994;4.448;2023-02-26T03:41:13;2.83;68.33
71291;DHT22;59073;51.994;4.448;2023-02-26T03:43:58;2.82;67.59
71291;DHT22;59073;51.994;4.448;2023-02-26T03:46:54;2.72;67.26
71291;DHT22;59073;51.994;4.448;2023-02-26T03:52:36;2.51;67.20
71291;DHT22;59073;51.994;4.448;2023-02-26T03:55:14;2.63;67.52
71291;DHT22;59073;51.994;4.448;2023-02-26T03:57:59;2.56;66.89
71291;DHT22;59073;51.994;4.448;2023-02-26T04:00:54;2.52;66.83
71291;DHT22;59073;51.994;4.448;2023-02-26T04:03:58;2.53;66.87
71291;DHT22;59073;51.994;4.448;2023-02-26T04:06:41;2.52;67.00
71291;DHT22;59073;51.994;4.448;2023-02-26T04:09:35;2.56;66.82
71291;DHT22;59073;51.994;4.448;2023-02-26T04:12:33;2.48;67.13
71291;DHT22;59073;51.994;4.448;2023-02-26T04:15:05;2.48;66.82
71291;DHT22;59073;51.994;4.448;2023-02-26T04:17:45;2.49;66.50
71291;DHT22;59073;51.994;4.448;2023-02-26T04:20:28;2.44;66.62
71291;DHT22;59073;51.994;4.448;2023-02-26T04:23:11;2.55;66.56
71291;DHT22;59073;51.994;4.448;2023-02-26T04:25:41;2.46;66.31
71291;DHT22;59073;51.994;4.448;2023-02-26T04:28:15;2.52;66.38
71291;DHT22;59073;51.994;4.448;2023-02-26T04:31:09;2.38;66.37
71291;DHT22;59073;51.994;4.448;2023-02-26T04:34:11;2.46;66.51
71291;DHT22;59073;51.994;4.448;2023-02-26T04:37:05;2.45;66.16
71291;DHT22;59073;51.994;4.448;2023-02-26T04:39:54;2.46;66.91
71291;DHT22;59073;51.994;4.448;2023-02-26T04:42:36;2.41;66.57
71291;DHT22;59073;51.994;4.448;2023-02-26T04:45:18;2.42;66.30
71291;DHT22;59073;51.994;4.448;2023-02-26T04:47:52;2.42;66.68
71291;DHT22;59073;51.994;4.448;2023-02-26T04:50:28;2.52;66.82
71291;DHT22;59073;51.994;4.448;2023-02-26T04:53:19;2.37;66.25
71291;DHT22;59073;51.994;4.448;2023-02-26T04:59:16;2.40;66.49
71291;DHT22;59073;51.994;4.448;2023-02-26T05:05:16;2.38;66.66
71291;DHT22;59073;51.994;4.448;2023-02-26T05:07:51;2.31;66.79
71291;DHT22;59073;51.994;4.448;2023-02-26T05:10:20;2.30;66.29
71291;DHT22;59073;51.994;4.448;2023-02-26T05:16:09;2.21;66.59
71291;DHT22;59073;51.994;4.448;2023-02-26T06:38:09;2.13;69.41
71291;DHT22;59073;51.994;4.448;2023-02-26T06:40:38;1.99;69.55
71291;DHT22;59073;51.994;4.448;2023-02-26T06:53:41;2.99;66.69
71291;DHT22;59073;51.994;4.448;2023-02-26T06:56:18;3.12;66.00
71291;DHT22;59073;51.994;4.448;2023-02-26T08:12:07;4.37;60.09
71291;DHT22;59073;51.994;4.448;2023-02-26T08:14:32;4.40;60.07
71291;DHT22;59073;51.994;4.448;2023-02-26T08:16:58;4.39;59.46
71291;DHT22;59073;51.994;4.448;2023-02-26T08:19:23;4.34;58.57
71291;DHT22;59073;51.994;4.448;2023-02-26T08:21:52;4.19;57.57
71291;DHT22;59073;51.994;4.448;2023-02-26T08:24:20;4.23;58.52
71291;DHT22;59073;51.994;4.448;2023-02-26T08:26:45;4.49;58.06
71291;DHT22;59073;51.994;4.448;2023-02-26T08:29:11;4.56;57.81
71291;DHT22;59073;51.994;4.448;2023-02-26T08:31:36;4.73;56.91
71291;DHT22;59073;51.994;4.448;2023-02-26T08:34:02;4.49;57.49
71291;DHT22;59073;51.994;4.448;2023-02-26T08:36:31;4.53;57.42
71291;DHT22;59073;51.994;4.448;2023-02-26T08:38:57;4.54;56.57
71291;DHT22;59073;51.994;4.448;2023-02-26T08:41:23;4.53;56.68
71291;DHT22;59073;51.994;4.448;2023-02-26T08:43:51;4.56;56.70
71291;DHT22;59073;51.994;4.448;2023-02-26T08:46:17;4.73;56.15
71291;DHT22;59073;51.994;4.448;2023-02-26T08:48:42;4.70;56.14
71291;DHT22;59073;51.994;4.448;2023-02-26T08:51:08;4.58;56.28
71291;DHT22;59073;51.994;4.448;2023-02-26T08:53:36;4.53;55.45
71291;DHT22;59073;51.994;4.448;2023-02-26T08:56:04;4.77;56.01
71291;DHT22;59073;51.994;4.448;2023-02-26T08:58:29;4.73;55.11
71291;DHT22;59073;51.994;4.448;2023-02-26T09:00:55;4.77;55.29
71291;DHT22;59073;51.994;4.448;2023-02-26T09:03:28;4.56;54.45
71291;DHT22;59073;51.994;4.448;2023-02-26T09:05:54;4.57;55.42
71291;DHT22;59073;51.994;4.448;2023-02-26T09:08:19;4.53;55.50
71291;DHT22;59073;51.994;4.448;2023-02-26T09:10:45;4.37;54.41
71291;DHT22;59073;51.994;4.448;2023-02-26T09:13:11;4.54;54.17
71291;DHT22;59073;51.994;4.448;2023-02-26T09:15:37;4.65;54.75
71291;DHT22;59073;51.994;4.448;2023-02-26T09:18:02;4.64;53.66
71291;DHT22;59073;51.994;4.448;2023-02-26T09:20:28;5.02;54.44
71291;DHT22;59073;51.994;4.448;2023-02-26T09:23:01;5.11;54.33
71291;DHT22;59073;51.994;4.448;2023-02-26T09:25:26;5.02;52.42
71291;DHT22;59073;51.994;4.448;2023-02-26T09:27:54;5.01;52.89
71291;DHT22;59073;51.994;4.448;2023-02-26T09:30:20;5.14;52.85
71291;DHT22;59073;51.994;4.448;2023-02-26T09:32:45;4.81;53.05
71291;DHT22;59073;51.994;4.448;2023-02-26T09:35:11;5.12;51.72
71291;DHT22;59073;51.994;4.448;2023-02-26T09:37:36;4.92;52.35
71291;DHT22;59073;51.994;4.448;2023-02-26T09:40:02;5.08;53.53
71291;DHT22;59073;51.994;4.448;2023-02-26T09:42:56;5.33;52.69
71291;DHT22;59073;51.994;4.448;2023-02-26T09:45:37;5.46;53.88
71291;DHT22;59073;51.994;4.448;2023-02-26T09:48:05;5.04;53.32
71291;DHT22;59073;51.994;4.448;2023-02-26T09:50:42;5.31;51.22
71291;DHT22;59073;51.994;4.448;2023-02-26T09:53:25;5.22;51.91
71291;DHT22;59073;51.994;4.448;2023-02-26T09:56:03;5.26;51.25
71291;DHT22;59073;51.994;4.448;2023-02-26T09:58:36;5.08;52.66
71291;DHT22;59073;51.994;4.448;2023-02-26T10:01:10;4.80;52.27
71291;DHT22;59073;51.994;4.448;2023-02-26T10:14:41;5.36;51.35
71291;DHT22;59073;51.994;4.448;2023-02-26T10:18:24;5.55;52.31
71291;DHT22;59073;51.994;4.448;2023-02-26T10:21:14;5.47;50.34
71291;DHT22;59073;51.994;4.448;2023-02-26T10:23:50;5.73;53.90
71291;DHT22;59073;51.994;4.448;2023-02-26T10:26:21;5.55;50.35
71291;DHT22;59073;51.994;4.448;2023-02-26T10:39:47;5.73;50.71
71291;DHT22;59073;51.994;4.448;2023-02-26T10:42:20;6.32;52.14
71291;DHT22;59073;51.994;4.448;2023-02-26T10:45:03;6.34;50.86
71291;DHT22;59073;51.994;4.448;2023-02-26T10:50:17;6.50;51.50
71291;DHT22;59073;51.994;4.448;2023-02-26T10:52:46;5.97;49.65
71291;DHT22;59073;51.994;4.448;2023-02-26T10:55:54;6.17;49.52
71291;DHT22;59073;51.994;4.448;2023-02-26T10:58:23;6.10;49.63
71291;DHT22;59073;51.994;4.448;2023-02-26T11:00:53;6.15;49.80
71291;DHT22;59073;51.994;4.448;2023-02-26T11:05:50;6.08;50.29
71291;DHT22;59073;51.994;4.448;2023-02-26T11:08:43;6.32;50.92
71291;DHT22;59073;51.994;4.448;2023-02-26T11:11:10;5.91;51.01
71291;DHT22;59073;51.994;4.448;2023-02-26T11:17:38;5.90;50.90
71291;DHT22;59073;51.994;4.448;2023-02-26T11:20:38;5.96;50.52
71291;DHT22;59073;51.994;4.448;2023-02-26T11:23:13;5.93;51.60
71291;DHT22;59073;51.994;4.448;2023-02-26T11:25:41;5.83;51.60
71291;DHT22;59073;51.994;4.448;2023-02-26T11:28:21;5.90;51.74
71291;DHT22;59073;51.994;4.448;2023-02-26T11:30:48;5.93;51.50
71291;DHT22;59073;51.994;4.448;2023-02-26T11:33:24;6.27;51.37
71291;DHT22;59073;51.994;4.448;2023-02-26T11:35:51;6.28;51.28
71291;DHT22;59073;51.994;4.448;2023-02-26T11:38:21;6.08;50.91
71291;DHT22;59073;51.994;4.448;2023-02-26T11:40:53;6.34;53.73
71291;DHT22;59073;51.994;4.448;2023-02-26T11:43:22;6.36;51.92
71291;DHT22;59073;51.994;4.448;2023-02-26T11:45:59;6.27;50.77
71291;DHT22;59073;51.994;4.448;2023-02-26T11:48:42;6.32;51.29
71291;DHT22;59073;51.994;4.448;2023-02-26T11:51:14;6.14;51.35
71291;DHT22;59073;51.994;4.448;2023-02-26T11:53:58;6.18;51.27
71291;DHT22;59073;51.994;4.448;2023-02-26T11:56:41;6.36;52.29
71291;DHT22;59073;51.994;4.448;2023-02-26T11:59:17;6.13;52.03
71291;DHT22;59073;51.994;4.448;2023-02-26T12:01:43;6.45;53.00
71291;DHT22;59073;51.994;4.448;2023-02-26T12:04:12;6.45;51.63
71291;DHT22;59073;51.994;4.448;2023-02-26T12:06:38;6.28;51.77
71291;DHT22;59073;51.994;4.448;2023-02-26T12:09:10;6.45;51.93
71291;DHT22;59073;51.994;4.448;2023-02-26T12:17:30;7.50;50.87
71291;DHT22;59073;51.994;4.448;2023-02-26T12:37:24;6.28;51.22
71291;DHT22;59073;51.994;4.448;2023-02-26T12:42:53;6.46;52.05
71291;DHT22;59073;51.994;4.448;2023-02-26T12:45:34;6.80;52.33
71291;DHT22;59073;51.994;4.448;2023-02-26T12:51:01;6.58;52.01
71291;DHT22;59073;51.994;4.448;2023-02-26T12:53:54;6.62;51.82
71291;DHT22;59073;51.994;4.448;2023-02-26T12:59:30;6.13;52.81
71291;DHT22;59073;51.994;4.448;2023-02-26T13:07:35;6.32;52.43
71291;DHT22;59073;51.994;4.448;2023-02-26T13:18:09;6.34;53.96
71291;DHT22;59073;51.994;4.448;2023-02-26T13:20:39;6.28;53.03
71291;DHT22;59073;51.994;4.448;2023-02-26T13:23:19;6.32;53.85
71291;DHT22;59073;51.994;4.448;2023-02-26T13:25:55;6.29;53.96
71291;DHT22;59073;51.994;4.448;2023-02-26T13:28:45;6.21;52.82
71291;DHT22;59073;51.994;4.448;2023-02-26T13:34:00;6.52;52.55
71291;DHT22;59073;51.994;4.448;2023-02-26T13:36:28;6.66;53.85
71291;DHT22;59073;51.994;4.448;2023-02-26T13:38:59;6.49;53.23
71291;DHT22;59073;51.994;4.448;2023-02-26T13:45:17;6.77;54.44
71291;DHT22;59073;51.994;4.448;2023-02-26T13:50:27;6.64;54.90
71291;DHT22;59073;51.994;4.448;2023-02-26T13:53:03;6.44;53.04
71291;DHT22;59073;51.994;4.448;2023-02-26T13:55:44;6.56;53.02
71291;DHT22;59073;51.994;4.448;2023-02-26T14:08:56;6.42;52.01
71291;DHT22;59073;51.994;4.448;2023-02-26T14:11:46;6.35;52.79
71291;DHT22;59073;51.994;4.448;2023-02-26T14:14:42;6.58;53.58
71291;DHT22;59073;51.994;4.448;2023-02-26T14:19:42;6.53;51.39
71291;DHT22;59073;51.994;4.448;2023-02-26T14:22:21;6.61;51.45
71291;DHT22;59073;51.994;4.448;2023-02-26T14:30:57;6.79;53.08
71291;DHT22;59073;51.994;4.448;2023-02-26T14:33:29;6.87;53.98
71291;DHT22;59073;51.994;4.448;2023-02-26T14:36:08;6.75;53.80
71291;DHT22;59073;51.994;4.448;2023-02-26T14:38:41;6.61;51.91
71291;DHT22;59073;51.994;4.448;2023-02-26T14:41:32;6.66;53.85
71291;DHT22;59073;51.994;4.448;2023-02-26T14:44:14;6.73;52.37
71291;DHT22;59073;51.994;4.448;2023-02-26T14:46:43;6.73;52.33
71291;DHT22;59073;51.994;4.448;2023-02-26T14:49:18;6.68;51.72
71291;DHT22;59073;51.994;4.448;2023-02-26T14:54:55;6.76;50.74
71291;DHT22;59073;51.994;4.448;2023-02-26T14:57:34;6.72;51.54
71291;DHT22;59073;51.994;4.448;2023-02-26T15:03:18;6.73;50.78
71291;DHT22;59073;51.994;4.448;2023-02-26T15:18:10;6.83;53.52
71291;DHT22;59073;51.994;4.448;2023-02-26T15:26:34;6.62;49.87
71291;DHT22;59073;51.994;4.448;2023-02-26T15:29:05;6.58;48.91
71291;DHT22;59073;51.994;4.448;2023-02-26T15:31:54;6.52;48.19
71291;DHT22;59073;51.994;4.448;2023-02-26T15:34:25;6.65;49.75
71291;DHT22;59073;51.994;4.448;2023-02-26T15:37:27;6.53;47.77
71291;DHT22;59073;51.994;4.448;2023-02-26T15:40:02;6.42;47.59
71291;DHT22;59073;51.994;4.448;2023-02-26T15:42:40;6.38;47.98
71291;DHT22;59073;51.994;4.448;2023-02-26T15:48:43;6.56;50.24
71291;DHT22;59073;51.994;4.448;2023-02-26T15:51:15;6.52;51.19
71291;DHT22;59073;51.994;4.448;2023-02-26T15:53:46;6.49;52.45
71291;DHT22;59073;51.994;4.448;2023-02-26T15:56:34;6.52;53.03
71291;DHT22;59073;51.994;4.448;2023-02-26T15:59:30;6.29;51.28
71291;DHT22;59073;51.994;4.448;2023-02-26T16:01:56;6.31;52.45
71291;DHT22;59073;51.994;4.448;2023-02-26T16:04:22;6.41;52.44
71291;DHT22;59073;51.994;4.448;2023-02-26T16:07:26;6.32;53.36
71291;DHT22;59073;51.994;4.448;2023-02-26T16:10:07;6.28;53.97
71291;DHT22;59073;51.994;4.448;2023-02-26T16:12:41;6.32;54.09
71291;DHT22;59073;51.994;4.448;2023-02-26T16:15:43;6.21;52.95
71291;DHT22;59073;51.994;4.448;2023-02-26T16:18:15;6.20;53.36
71291;DHT22;59073;51.994;4.448;2023-02-26T16:20:48;6.27;52.24
71291;DHT22;59073;51.994;4.448;2023-02-26T16:23:20;6.11;53.00
71291;DHT22;59073;51.994;4.448;2023-02-26T16:25:51;6.07;54.05
71291;DHT22;59073;51.994;4.448;2023-02-26T16:28:26;6.05;55.12
71291;DHT22;59073;51.994;4.448;2023-02-26T16:30:55;6.04;54.91
71291;DHT22;59073;51.994;4.448;2023-02-26T16:33:24;6.07;55.69
71291;DHT22;59073;51.994;4.448;2023-02-26T16:36:03;6.01;55.78
71291;DHT22;59073;51.994;4.448;2023-02-26T16:38:49;6.01;55.77
71291;DHT22;59073;51.994;4.448;2023-02-26T16:41:21;6.01;56.92
71291;DHT22;59073;51.994;4.448;2023-02-26T16:43:53;5.98;55.52
71291;DHT22;59073;51.994;4.448;2023-02-26T16:46:29;6.01;55.54
71291;DHT22;59073;51.994;4.448;2023-02-26T16:49:03;6.01;55.77
71291;DHT22;59073;51.994;4.448;2023-02-26T16:51:31;6.01;55.79
71291;DHT22;59073;51.994;4.448;2023-02-26T16:54:04;5.93;55.39
71291;DHT22;59073;51.994;4.448;2023-02-26T16:56:41;5.93;55.57
71291;DHT22;59073;51.994;4.448;2023-02-26T16:59:20;5.83;56.72
71291;DHT22;59073;51.994;4.448;2023-02-26T17:01:52;5.70;57.09
71291;DHT22;59073;51.994;4.448;2023-02-26T17:04:22;5.69;57.06
71291;DHT22;59073;51.994;4.448;2023-02-26T17:06:49;5.66;57.24
71291;DHT22;59073;51.994;4.448;2023-02-26T17:09:37;5.77;57.90
71291;DHT22;59073;51.994;4.448;2023-02-26T17:14:42;5.66;58.82
71291;DHT22;59073;51.994;4.448;2023-02-26T17:17:12;5.63;59.35
71291;DHT22;59073;51.994;4.448;2023-02-26T17:19:38;5.53;60.04
71291;DHT22;59073;51.994;4.448;2023-02-26T17:22:07;5.59;60.46
71291;DHT22;59073;51.994;4.448;2023-02-26T17:24:37;5.35;60.06
71291;DHT22;59073;51.994;4.448;2023-02-26T17:27:27;5.40;60.21
71291;DHT22;59073;51.994;4.448;2023-02-26T17:29:53;5.38;59.82
71291;DHT22;59073;51.994;4.448;2023-02-26T17:32:22;5.42;60.67
71291;DHT22;59073;51.994;4.448;2023-02-26T17:34:49;5.32;61.28
71291;DHT22;59073;51.994;4.448;2023-02-26T17:37:29;5.33;60.80
71291;DHT22;59073;51.994;4.448;2023-02-26T17:39:55;5.22;60.59
71291;DHT22;59073;51.994;4.448;2023-02-26T17:45:33;5.24;60.72
71291;DHT22;59073;51.994;4.448;2023-02-26T17:48:02;5.24;60.83
71291;DHT22;59073;51.994;4.448;2023-02-26T17:50:56;5.21;61.38
71291;DHT22;59073;51.994;4.448;2023-02-26T17:53:25;5.09;60.87
71291;DHT22;59073;51.994;4.448;2023-02-26T17:56:00;5.09;61.47
71291;DHT22;59073;51.994;4.448;2023-02-26T17:58:32;5.12;61.23
71291;DHT22;59073;51.994;4.448;2023-02-26T18:01:01;5.16;61.39
71291;DHT22;59073;51.994;4.448;2023-02-26T18:03:36;5.08;61.81
71291;DHT22;59073;51.994;4.448;2023-02-26T18:16:35;4.92;63.25
71291;DHT22;59073;51.994;4.448;2023-02-26T18:19:12;4.83;63.54
71291;DHT22;59073;51.994;4.448;2023-02-26T18:24:38;4.77;64.13
71291;DHT22;59073;51.994;4.448;2023-02-26T18:27:22;4.65;64.75
71291;DHT22;59073;51.994;4.448;2023-02-26T18:29:51;4.74;64.62
71291;DHT22;59073;51.994;4.448;2023-02-26T18:32:51;4.80;64.83
71291;DHT22;59073;51.994;4.448;2023-02-26T18:35:16;4.70;65.17
71291;DHT22;59073;51.994;4.448;2023-02-26T18:37:42;4.60;65.19
71291;DHT22;59073;51.994;4.448;2023-02-26T18:40:24;4.70;65.15
71291;DHT22;59073;51.994;4.448;2023-02-26T18:43:04;4.61;65.41
71291;DHT22;59073;51.994;4.448;2023-02-26T18:45:32;4.71;65.35
71291;DHT22;59073;51.994;4.448;2023-02-26T18:47:57;4.64;65.78
71291;DHT22;59073;51.994;4.448;2023-02-26T18:50:31;4.64;65.89
71291;DHT22;59073;51.994;4.448;2023-02-26T18:52:57;4.56;66.17
71291;DHT22;59073;51.994;4.448;2023-02-26T18:55:22;4.58;66.11
71291;DHT22;59073;51.994;4.448;2023-02-26T18:57:57;4.56;66.59
71291;DHT22;59073;51.994;4.448;2023-02-26T19:00:25;4.53;66.57
71291;DHT22;59073;51.994;4.448;2023-02-26T19:02:53;4.47;66.76
71291;DHT22;59073;51.994;4.448;2023-02-26T19:05:19;4.49;66.97
71291;DHT22;59073;51.994;4.448;2023-02-26T19:07:52;4.50;66.81
71291;DHT22;59073;51.994;4.448;2023-02-26T19:10:26;4.43;67.05
71291;DHT22;59073;51.994;4.448;2023-02-26T19:12:53;4.42;67.09
71291;DHT22;59073;51.994;4.448;2023-02-26T19:16:02;4.49;67.30
71291;DHT22;59073;51.994;4.448;2023-02-26T19:18:31;4.50;67.29
71291;DHT22;59073;51.994;4.448;2023-02-26T19:20:56;4.32;67.78
71291;DHT22;59073;51.994;4.448;2023-02-26T19:23:24;4.33;67.59
71291;DHT22;59073;51.994;4.448;2023-02-26T19:25:50;4.36;67.61
71291;DHT22;59073;51.994;4.448;2023-02-26T19:28:16;4.29;67.78
71291;DHT22;59073;51.994;4.448;2023-02-26T19:30:42;4.33;67.84
71291;DHT22;59073;51.994;4.448;2023-02-26T19:33:10;4.33;67.98
71291;DHT22;59073;51.994;4.448;2023-02-26T19:35:49;4.32;67.80
71291;DHT22;59073;51.994;4.448;2023-02-26T19:38:16;4.37;67.87
71291;DHT22;59073;51.994;4.448;2023-02-26T19:40:47;4.28;67.58
71291;DHT22;59073;51.994;4.448;2023-02-26T19:43:15;4.36;68.07
71291;DHT22;59073;51.994;4.448;2023-02-26T19:45:42;4.37;67.79
71291;DHT22;59073;51.994;4.448;2023-02-26T19:48:13;4.43;67.58
71291;DHT22;59073;51.994;4.448;2023-02-26T19:50:41;4.46;67.97
71291;DHT22;59073;51.994;4.448;2023-02-26T19:53:07;4.46;67.90
71291;DHT22;59073;51.994;4.448;2023-02-26T19:55:41;4.50;67.45
71291;DHT22;59073;51.994;4.448;2023-02-26T19:58:24;4.60;67.82
71291;DHT22;59073;51.994;4.448;2023-02-26T20:00:56;4.56;67.54
71291;DHT22;59073;51.994;4.448;2023-02-26T20:03:22;4.65;67.48
71291;DHT22;59073;51.994;4.448;2023-02-26T20:05:48;4.67;67.79
71291;DHT22;59073;51.994;4.448;2023-02-26T20:08:14;4.61;67.71
71291;DHT22;59073;51.994;4.448;2023-02-26T20:10:39;4.61;67.62
71291;DHT22;59073;51.994;4.448;2023-02-26T20:13:05;4.61;67.81
71291;DHT22;59073;51.994;4.448;2023-02-26T20:15:33;4.58;67.99
71291;DHT22;59073;51.994;4.448;2023-02-26T20:17:58;4.54;67.88
71291;DHT22;59073;51.994;4.448;2023-02-26T20:20:24;4.63;67.72
71291;DHT22;59073;51.994;4.448;2023-02-26T20:22:49;4.46;68.40
71291;DHT22;59073;51.994;4.448;2023-02-26T20:25:15;4.52;68.42
71291;DHT22;59073;51.994;4.448;2023-02-26T20:27:41;4.60;68.79
71291;DHT22;59073;51.994;4.448;2023-02-26T20:30:10;4.63;68.93
71291;DHT22;59073;51.994;4.448;2023-02-26T20:32:36;4.71;68.78
71291;DHT22;59073;51.994;4.448;2023-02-26T20:35:04;4.65;69.01
71291;DHT22;59073;51.994;4.448;2023-02-26T20:37:43;4.65;69.07
71291;DHT22;59073;51.994;4.448;2023-02-26T20:40:14;4.68;68.72
71291;DHT22;59073;51.994;4.448;2023-02-26T20:42:40;4.73;68.45
71291;DHT22;59073;51.994;4.448;2023-02-26T20:45:14;4.75;68.55
71291;DHT22;59073;51.994;4.448;2023-02-26T20:47:44;4.65;69.17
71291;DHT22;59073;51.994;4.448;2023-02-26T20:50:18;4.80;69.30
71291;DHT22;59073;51.994;4.448;2023-02-26T20:52:51;4.85;68.94
71291;DHT22;59073;51.994;4.448;2023-02-26T20:55:31;4.91;68.83
71291;DHT22;59073;51.994;4.448;2023-02-26T20:58:03;5.05;68.03
71291;DHT22;59073;51.994;4.448;2023-02-26T21:00:56;5.04;68.22
71291;DHT22;59073;51.994;4.448;2023-02-26T21:03:48;5.12;68.61
71291;DHT22;59073;51.994;4.448;2023-02-26T21:06:13;5.12;68.73
71291;DHT22;59073;51.994;4.448;2023-02-26T21:08:52;5.21;68.52
71291;DHT22;59073;51.994;4.448;2023-02-26T21:11:20;5.19;68.59
71291;DHT22;59073;51.994;4.448;2023-02-26T21:13:45;5.14;68.46
71291;DHT22;59073;51.994;4.448;2023-02-26T21:16:27;5.11;68.29
71291;DHT22;59073;51.994;4.448;2023-02-26T21:19:20;5.15;68.15
71291;DHT22;59073;51.994;4.448;2023-02-26T21:22:14;5.21;67.81
71291;DHT22;59073;51.994;4.448;2023-02-26T21:24:57;5.26;67.79
71291;DHT22;59073;51.994;4.448;2023-02-26T21:30:07;5.24;68.10
71291;DHT22;59073;51.994;4.448;2023-02-26T21:32:56;5.22;68.57
71291;DHT22;59073;51.994;4.448;2023-02-26T21:35:21;5.24;68.49
71291;DHT22;59073;51.994;4.448;2023-02-26T21:37:46;5.22;68.81
71291;DHT22;59073;51.994;4.448;2023-02-26T21:40:18;5.08;68.89
71291;DHT22;59073;51.994;4.448;2023-02-26T21:42:43;5.04;69.45
71291;DHT22;59073;51.994;4.448;2023-02-26T21:45:10;5.02;69.92
71291;DHT22;59073;51.994;4.448;2023-02-26T21:47:38;5.07;69.87
71291;DHT22;59073;51.994;4.448;2023-02-26T21:50:05;5.08;69.25
71291;DHT22;59073;51.994;4.448;2023-02-26T21:52:41;4.95;69.00
71291;DHT22;59073;51.994;4.448;2023-02-26T21:55:12;4.77;69.10
71291;DHT22;59073;51.994;4.448;2023-02-26T21:57:52;4.88;69.15
71291;DHT22;59073;51.994;4.448;2023-02-26T22:00:35;4.94;69.03
71291;DHT22;59073;51.994;4.448;2023-02-26T22:03:27;4.95;69.03
71291;DHT22;59073;51.994;4.448;2023-02-26T22:05:53;4.96;68.87
71291;DHT22;59073;51.994;4.448;2023-02-26T22:08:26;5.05;68.46
71291;DHT22;59073;51.994;4.448;2023-02-26T22:10:53;5.14;67.82
71291;DHT22;59073;51.994;4.448;2023-02-26T22:13:19;5.16;67.95
71291;DHT22;59073;51.994;4.448;2023-02-26T22:15:59;5.05;68.44
71291;DHT22;59073;51.994;4.448;2023-02-26T22:18:27;5.08;68.24
71291;DHT22;59073;51.994;4.448;2023-02-26T22:20:52;5.15;68.93
71291;DHT22;59073;51.994;4.448;2023-02-26T22:23:23;5.22;67.98
71291;DHT22;59073;51.994;4.448;2023-02-26T22:26:05;5.11;68.50
71291;DHT22;59073;51.994;4.448;2023-02-26T22:28:36;5.05;68.49
71291;DHT22;59073;51.994;4.448;2023-02-26T22:31:13;4.94;68.08
71291;DHT22;59073;51.994;4.448;2023-02-26T22:33:38;4.81;68.24
71291;DHT22;59073;51.994;4.448;2023-02-26T22:36:04;4.65;68.63
71291;DHT22;59073;51.994;4.448;2023-02-26T22:38:30;4.65;68.82
71291;DHT22;59073;51.994;4.448;2023-02-26T22:40:58;4.58;68.71
71291;DHT22;59073;51.994;4.448;2023-02-26T22:43:23;4.65;68.76
71291;DHT22;59073;51.994;4.448;2023-02-26T22:46:18;4.70;68.78
71291;DHT22;59073;51.994;4.448;2023-02-26T22:48:47;4.58;68.83
71291;DHT22;59073;51.994;4.448;2023-02-26T22:51:15;4.61;68.74
71291;DHT22;59073;51.994;4.448;2023-02-26T22:53:40;4.64;68.92
71291;DHT22;59073;51.994;4.448;2023-02-26T22:56:10;4.73;68.59